Marine Hornbill — 3FEF3 — position and weather

sailwx.info

Track history (hours):
 
Tides and Currents Weather Stations Pressure Air Temp Water Temp Dewpoint Dewpoint Depression Visibility Wind Speed Wind Dir Waves Ship Positions

Marine Hornbill

Last reported at 2017-Jun-03 01:49 UTC. Time now 2017-Jun-23 07:01 UTC.
Position N 28°13' E 125°51'.
Warning: this ship's position is 20 days out of date.

Length 116 m; draft 6.8 m.

Type: Cargo ship. MMSI: 357869000.

Date/timePositionNaut miles runAvg speedWind from/ knotsBaromVisibWave heightAir tempDewpointWater temp
2017-Jun-03 01:49N 28°13' E 125°51'  
2017-May-26 18:21N 34°03' E 134°59'511.5
2017-May-26 17:56N 34°07' E 134°59'512.0
2017-May-26 17:30N 34°12' E 134°58'712.5
2017-May-26 16:58N 34°19' E 134°59'511.2
2017-May-26 16:30N 34°24' E 135°01'611.8
2017-May-26 16:00N 34°30' E 135°03'510.7
2017-May-26 15:30N 34°35' E 135°04'510.2
2017-May-26 15:00N 34°37' E 134°58'1010.0
2017-May-26 13:58N 34°39' E 134°46'510.1
2017-May-26 13:30N 34°41' E 134°41'  
Track history (hours):
 
Tides and Currents Weather Stations Pressure Air Temp Water Temp Dewpoint Dewpoint Depression Visibility Wind Speed Wind Dir Waves Ship Positions

Marine Hornbill

Last reported at 2017-Jun-03 01:49 UTC. Time now 2017-Jun-23 07:01 UTC.
Position N 28°13' E 125°51'.
Warning: this ship's position is 20 days out of date.

Length 116 m; draft 6.8 m.

Type: Cargo ship. MMSI: 357869000.

Date/timePositionNaut miles runAvg speedWind from/ knotsBaromVisibWave heightAir tempDewpointWater temp
2017-Jun-03 01:49N 28°13' E 125°51'  
2017-May-26 18:21N 34°03' E 134°59'511.5
2017-May-26 17:56N 34°07' E 134°59'512.0
2017-May-26 17:30N 34°12' E 134°58'712.5
2017-May-26 16:58N 34°19' E 134°59'511.2
2017-May-26 16:30N 34°24' E 135°01'611.8
2017-May-26 16:00N 34°30' E 135°03'510.7
2017-May-26 15:30N 34°35' E 135°04'510.2
2017-May-26 15:00N 34°37' E 134°58'1010.0
2017-May-26 13:58N 34°39' E 134°46'510.1
2017-May-26 13:30N 34°41' E 134°41'  

Dump ship's entire track history